createdAt,value
2023-02-17T00:00:57.006Z,76.89
2023-02-17T00:03:24.355Z,76.54
2023-02-17T00:05:51.448Z,77.28
2023-02-17T00:08:17.822Z,77.53
2023-02-17T00:10:44.304Z,77.49
2023-02-17T00:13:10.699Z,76.41
2023-02-17T00:15:40.425Z,78.06
2023-02-17T00:18:06.920Z,77.62
2023-02-17T00:20:33.398Z,78.63
2023-02-17T00:22:59.766Z,79.26
2023-02-17T00:25:26.160Z,79.04
2023-02-17T00:27:52.511Z,77.14
2023-02-17T00:30:19.116Z,79.63
2023-02-17T00:32:45.549Z,77.90
2023-02-17T00:35:11.968Z,78.13
2023-02-17T00:37:38.461Z,79.20
2023-02-17T00:40:05.441Z,79.15
2023-02-17T00:42:31.854Z,79.20
2023-02-17T00:44:58.222Z,79.88
2023-02-17T00:47:24.562Z,79.60
2023-02-17T00:49:52.112Z,79.20
2023-02-17T00:52:18.561Z,79.85
2023-02-17T00:54:44.902Z,80.43
2023-02-17T00:57:11.296Z,80.70
2023-02-17T00:59:37.703Z,81.19
2023-02-17T01:02:04.337Z,81.57
2023-02-17T01:04:31.379Z,81.29
2023-02-17T01:06:57.870Z,80.41
2023-02-17T01:09:25.066Z,79.51
2023-02-17T01:11:51.635Z,80.70
2023-02-17T01:14:18.292Z,81.32
2023-02-17T01:16:48.175Z,80.88
2023-02-17T01:19:18.100Z,79.74
2023-02-17T01:21:45.372Z,80.74
2023-02-17T01:24:12.779Z,81.07
2023-02-17T01:26:41.391Z,80.46
2023-02-17T01:29:09.897Z,82.09
2023-02-17T01:31:36.977Z,81.12
2023-02-17T01:34:04.691Z,81.63
2023-02-17T01:36:32.006Z,81.66
2023-02-17T01:39:01.580Z,81.09
2023-02-17T01:41:28.798Z,82.52
2023-02-17T01:44:05.587Z,80.96
2023-02-17T01:46:34.238Z,80.85
2023-02-17T01:49:03.228Z,81.08
2023-02-17T01:51:33.889Z,81.10
2023-02-17T01:54:07.771Z,81.22
2023-02-17T01:56:38.416Z,81.99
2023-02-17T01:59:10.541Z,82.26
2023-02-17T02:01:37.444Z,81.54
2023-02-17T02:04:06.269Z,81.84
2023-02-17T02:06:36.196Z,82.36
2023-02-17T02:09:10.979Z,81.73
2023-02-17T02:11:37.824Z,80.97
2023-02-17T02:14:08.007Z,81.62
2023-02-17T02:16:45.413Z,82.17
2023-02-17T02:19:22.900Z,81.39
2023-02-17T02:22:05.301Z,80.54
2023-02-17T02:24:51.512Z,82.61
2023-02-17T02:27:34.248Z,81.00
2023-02-17T02:30:24.171Z,80.36
2023-02-17T02:32:59.937Z,82.03
2023-02-17T02:35:50.887Z,81.33
2023-02-17T02:39:02.986Z,81.57
2023-02-17T02:41:39.753Z,82.16
2023-02-17T02:44:09.695Z,81.25
2023-02-17T02:46:36.648Z,80.33
2023-02-17T02:49:04.287Z,81.96
2023-02-17T02:51:38.815Z,80.85
2023-02-17T02:54:26.504Z,82.84
2023-02-17T02:57:12.527Z,84.80
2023-02-17T02:59:48.071Z,83.04
2023-02-17T03:02:44.618Z,82.43
2023-02-17T03:05:21.601Z,82.78
2023-02-17T03:07:59.812Z,83.25
2023-02-17T03:10:26.417Z,83.12
2023-02-17T03:12:52.749Z,81.17
2023-02-17T03:15:26.046Z,81.25
2023-02-17T03:17:52.386Z,82.76
2023-02-17T03:20:18.908Z,83.51
2023-02-17T03:22:48.108Z,83.07
2023-02-17T03:25:15.541Z,82.48
2023-02-17T03:27:42.576Z,82.78
2023-02-17T03:30:10.163Z,82.85
2023-02-17T03:32:36.684Z,83.14
2023-02-17T03:35:03.873Z,83.77
2023-02-17T03:37:30.769Z,82.61
2023-02-17T03:39:57.353Z,84.16
2023-02-17T03:42:23.976Z,82.86
2023-02-17T03:44:50.487Z,83.01
2023-02-17T03:47:16.952Z,84.02
2023-02-17T03:49:43.458Z,81.80
2023-02-17T03:52:10.269Z,82.34
2023-02-17T03:54:37.932Z,80.57
2023-02-17T03:57:04.416Z,82.32
2023-02-17T03:59:31.141Z,83.17
2023-02-17T04:01:57.549Z,82.08
2023-02-17T04:04:24.069Z,83.12
2023-02-17T04:06:50.555Z,84.01
2023-02-17T04:09:17.180Z,81.93
2023-02-17T04:11:43.700Z,81.59
2023-02-17T04:14:10.524Z,82.38
2023-02-17T04:16:39.082Z,81.37
2023-02-17T04:19:06.916Z,82.45
2023-02-17T04:21:33.850Z,81.77
2023-02-17T04:24:01.755Z,82.98
2023-02-17T04:26:28.694Z,81.94
2023-02-17T04:28:55.118Z,82.08
2023-02-17T04:31:21.797Z,81.62
2023-02-17T04:33:48.478Z,81.81
2023-02-17T04:36:14.956Z,81.15
2023-02-17T04:38:41.372Z,82.19
2023-02-17T04:41:07.921Z,82.59
2023-02-17T04:43:34.421Z,81.27
2023-02-17T04:46:00.932Z,80.88
2023-02-17T04:48:27.363Z,80.95
2023-02-17T04:50:53.748Z,80.71
2023-02-17T04:53:20.689Z,80.31
2023-02-17T04:55:52.574Z,82.58
2023-02-17T04:58:19.697Z,81.59
2023-02-17T05:00:47.998Z,79.89
2023-02-17T05:03:14.403Z,80.26
2023-02-17T05:05:40.785Z,80.44
2023-02-17T05:08:07.192Z,80.95
2023-02-17T05:10:33.602Z,82.01
2023-02-17T05:13:00.001Z,81.57
2023-02-17T05:15:26.707Z,81.95
2023-02-17T05:17:53.043Z,82.47
2023-02-17T05:20:19.605Z,81.53
2023-02-17T05:22:45.991Z,81.70
2023-02-17T05:25:12.344Z,83.37
2023-02-17T05:27:38.808Z,82.07
2023-02-17T05:30:06.424Z,82.09
2023-02-17T05:32:33.056Z,83.71
2023-02-17T05:34:59.502Z,82.56
2023-02-17T05:37:26.868Z,82.74
2023-02-17T05:39:53.249Z,83.45
2023-02-17T05:42:19.604Z,83.91
2023-02-17T05:44:45.953Z,84.24
2023-02-17T05:47:12.352Z,81.50
2023-02-17T05:49:38.886Z,82.61
2023-02-17T05:52:05.232Z,82.89
2023-02-17T05:54:31.660Z,83.34
2023-02-17T05:56:58.018Z,82.50
2023-02-17T05:59:24.612Z,82.77
2023-02-17T06:01:50.980Z,82.77
2023-02-17T06:04:17.407Z,83.85
2023-02-17T06:06:44.873Z,82.35
2023-02-17T06:09:18.316Z,82.79
2023-02-17T06:11:44.791Z,83.80
2023-02-17T06:14:11.226Z,83.22
2023-02-17T06:16:37.762Z,83.58
2023-02-17T06:19:05.187Z,82.69
2023-02-17T06:21:31.983Z,83.04
2023-02-17T06:23:58.349Z,83.58
2023-02-17T06:26:24.953Z,83.57
2023-02-17T06:28:53.988Z,85.07
2023-02-17T06:31:20.700Z,85.29
2023-02-17T06:33:47.471Z,85.27
2023-02-17T06:36:13.952Z,83.92
2023-02-17T06:38:40.377Z,83.24
2023-02-17T06:41:06.766Z,83.10
2023-02-17T06:43:33.203Z,84.48
2023-02-17T06:45:59.684Z,84.05
2023-02-17T06:48:26.146Z,84.13
2023-02-17T06:50:52.689Z,85.36
2023-02-17T06:53:19.197Z,85.92
2023-02-17T06:55:45.583Z,85.87
2023-02-17T06:58:12.685Z,83.64
2023-02-17T07:00:39.153Z,85.16
2023-02-17T07:03:06.618Z,87.58
2023-02-17T07:05:37.688Z,85.78
2023-02-17T07:08:07.759Z,88.27
2023-02-17T07:10:34.469Z,87.33
2023-02-17T07:13:00.890Z,87.58
2023-02-17T07:15:27.279Z,88.35
2023-02-17T07:17:53.637Z,86.23
2023-02-17T07:20:22.588Z,86.04
2023-02-17T07:22:49.002Z,86.54
2023-02-17T07:25:15.514Z,86.34
2023-02-17T07:27:41.992Z,86.30
2023-02-17T07:30:08.933Z,87.21
2023-02-17T07:32:35.628Z,87.39
2023-02-17T07:35:02.280Z,86.47
2023-02-17T07:37:34.617Z,86.35
2023-02-17T07:40:01.152Z,87.08
2023-02-17T07:42:28.405Z,87.51
2023-02-17T07:44:58.046Z,87.39
2023-02-17T07:47:24.495Z,86.48
2023-02-17T07:49:53.383Z,88.24
2023-02-17T07:52:22.542Z,87.53
2023-02-17T07:54:48.975Z,87.13
2023-02-17T07:57:16.645Z,86.63
2023-02-17T07:59:46.535Z,85.49
2023-02-17T08:02:14.979Z,86.56
2023-02-17T08:04:43.655Z,86.34
2023-02-17T08:07:10.275Z,86.83
2023-02-17T08:09:55.308Z,86.25
2023-02-17T08:12:40.505Z,85.35
2023-02-17T08:15:09.396Z,86.22
2023-02-17T08:17:36.221Z,85.33
2023-02-17T08:20:08.729Z,85.87
2023-02-17T08:22:36.100Z,85.24
2023-02-17T08:25:02.759Z,85.54
2023-02-17T08:27:29.226Z,85.53
2023-02-17T08:30:01.189Z,84.49
2023-02-17T08:32:27.634Z,85.46
2023-02-17T08:34:59.362Z,84.76
2023-02-17T08:37:26.008Z,84.70
2023-02-17T08:39:54.879Z,85.04
2023-02-17T08:42:21.540Z,85.96
2023-02-17T08:44:47.920Z,85.24
2023-02-17T08:47:16.692Z,84.91
2023-02-17T08:49:45.533Z,85.98
2023-02-17T08:52:12.032Z,85.20
2023-02-17T08:54:41.154Z,84.47
2023-02-17T08:57:07.544Z,84.32
2023-02-17T08:59:33.995Z,84.52
2023-02-17T09:02:02.657Z,83.41
2023-02-17T09:04:31.696Z,84.22
2023-02-17T09:06:58.376Z,84.15
2023-02-17T09:09:29.277Z,83.63
2023-02-17T09:12:02.627Z,84.53
2023-02-17T09:14:29.132Z,84.10
2023-02-17T09:16:57.869Z,82.80
2023-02-17T09:19:31.603Z,83.47
2023-02-17T09:22:01.117Z,84.38
2023-02-17T09:24:28.679Z,84.21
2023-02-17T09:26:57.399Z,84.08
2023-02-17T09:29:23.779Z,83.25
2023-02-17T09:31:50.441Z,83.27
2023-02-17T09:34:16.945Z,82.83
2023-02-17T09:36:45.513Z,82.38
2023-02-17T09:39:14.058Z,82.94
2023-02-17T09:41:50.148Z,82.64
2023-02-17T09:44:27.053Z,82.68
2023-02-17T09:47:05.537Z,82.91
2023-02-17T09:49:57.103Z,82.19
2023-02-17T09:52:37.517Z,81.82
2023-02-17T09:55:07.137Z,82.66
2023-02-17T09:58:28.297Z,81.72
2023-02-17T10:00:58.207Z,83.13
2023-02-17T10:03:31.051Z,82.96
2023-02-17T10:06:15.312Z,82.84
2023-02-17T10:09:03.104Z,80.07
2023-02-17T10:11:44.097Z,80.99
2023-02-17T10:14:28.706Z,79.95
2023-02-17T10:16:59.925Z,79.33
2023-02-17T10:19:38.773Z,80.42
2023-02-17T10:22:16.131Z,79.94
2023-02-17T10:24:42.936Z,78.88
2023-02-17T10:27:41.787Z,77.74
2023-02-17T10:30:35.226Z,78.53
2023-02-17T10:33:20.564Z,78.17
2023-02-17T10:35:58.981Z,79.33
2023-02-17T10:38:53.206Z,77.61
2023-02-17T10:41:38.556Z,77.83
2023-02-17T10:44:21.110Z,78.39
2023-02-17T10:46:50.683Z,77.52
2023-02-17T10:49:37.437Z,77.04
2023-02-17T10:52:43.162Z,77.07
2023-02-17T10:55:36.974Z,78.14
2023-02-17T10:58:50.146Z,78.90
2023-02-17T11:01:17.281Z,79.73
2023-02-17T11:03:44.245Z,79.68
2023-02-17T11:06:18.852Z,78.52
2023-02-17T11:09:00.585Z,76.51
2023-02-17T11:11:32.409Z,77.02
2023-02-17T11:14:09.441Z,76.51
2023-02-17T11:16:41.582Z,77.03
2023-02-17T11:19:21.824Z,76.63
2023-02-17T11:21:51.226Z,75.22
2023-02-17T11:24:18.300Z,72.39
2023-02-17T11:26:58.647Z,73.32
2023-02-17T11:29:25.483Z,73.33
2023-02-17T11:31:55.058Z,72.84
2023-02-17T11:34:25.227Z,72.32
2023-02-17T11:37:05.926Z,69.57
2023-02-17T11:39:38.862Z,70.73
2023-02-17T11:42:26.370Z,72.54
2023-02-17T11:44:56.132Z,71.25
2023-02-17T11:47:38.649Z,67.77
2023-02-17T11:50:11.190Z,69.99
2023-02-17T11:53:04.400Z,69.67
2023-02-17T11:56:08.922Z,71.56
2023-02-17T11:58:46.898Z,72.90
2023-02-17T12:01:47.459Z,71.65
2023-02-17T12:04:23.887Z,72.36
2023-02-17T12:07:30.290Z,71.68
2023-02-17T12:10:14.682Z,72.25
2023-02-17T12:13:08.143Z,70.79
2023-02-17T12:16:21.567Z,69.13
2023-02-17T12:19:01.820Z,68.42
2023-02-17T12:21:39.677Z,67.98
2023-02-17T12:24:19.400Z,66.25
2023-02-17T12:27:06.004Z,63.82
2023-02-17T12:29:53.632Z,62.79
2023-02-17T12:32:41.757Z,64.14
2023-02-17T12:35:15.302Z,65.64
2023-02-17T12:37:58.319Z,64.95
2023-02-17T12:40:37.685Z,65.44
2023-02-17T12:43:27.445Z,64.71
2023-02-17T12:45:58.051Z,64.08
2023-02-17T12:48:39.809Z,65.21
2023-02-17T12:51:19.261Z,66.41
2023-02-17T12:54:01.110Z,64.93
2023-02-17T12:56:39.788Z,64.24
2023-02-17T12:59:20.401Z,62.72
2023-02-17T13:01:52.630Z,62.82
2023-02-17T13:04:24.566Z,64.63
2023-02-17T13:06:59.691Z,64.92
2023-02-17T13:09:40.825Z,66.02
2023-02-17T13:12:23.250Z,65.57
2023-02-17T13:14:51.523Z,65.39
2023-02-17T13:17:51.898Z,65.65
2023-02-17T13:20:18.234Z,66.55
2023-02-17T13:22:45.579Z,67.15
2023-02-17T13:25:37.038Z,66.63
2023-02-17T13:28:38.392Z,65.68
2023-02-17T13:31:17.762Z,66.95
2023-02-17T13:33:54.380Z,65.72
2023-02-17T13:36:32.918Z,65.06
2023-02-17T13:39:03.726Z,64.62
2023-02-17T13:41:44.358Z,64.43
2023-02-17T13:44:40.290Z,65.74
2023-02-17T13:47:24.806Z,64.34
2023-02-17T13:49:57.087Z,65.14
2023-02-17T13:52:26.472Z,63.51
2023-02-17T13:54:55.291Z,63.95
2023-02-17T13:57:29.128Z,62.79
2023-02-17T14:00:13.805Z,62.22
2023-02-17T14:02:48.676Z,62.12
2023-02-17T14:05:45.538Z,61.63
2023-02-17T14:08:44.164Z,62.45
2023-02-17T14:11:22.866Z,62.27
2023-02-17T14:13:51.893Z,62.34
2023-02-17T14:16:34.417Z,62.88
2023-02-17T14:19:10.870Z,64.88
2023-02-17T14:21:41.047Z,63.66
2023-02-17T14:24:22.003Z,62.67
2023-02-17T14:26:49.485Z,63.08
2023-02-17T14:29:25.786Z,63.96
2023-02-17T14:31:53.543Z,64.30
2023-02-17T14:34:28.402Z,65.26
2023-02-17T14:36:55.582Z,64.72
2023-02-17T14:39:22.404Z,64.75
2023-02-17T14:41:48.854Z,65.67
2023-02-17T14:44:15.455Z,64.70
2023-02-17T14:46:42.032Z,64.50
2023-02-17T14:49:08.466Z,65.08
2023-02-17T14:51:37.511Z,64.06
2023-02-17T14:54:13.931Z,66.71
2023-02-17T14:57:06.101Z,67.04
2023-02-17T14:59:32.765Z,66.60
2023-02-17T15:01:59.879Z,65.97
2023-02-17T15:04:26.488Z,66.30
2023-02-17T15:06:54.695Z,66.01
2023-02-17T15:09:28.981Z,68.18
2023-02-17T15:11:56.190Z,67.87
2023-02-17T15:14:22.608Z,67.96
2023-02-17T15:16:49.336Z,67.60
2023-02-17T15:19:17.981Z,69.05
2023-02-17T15:21:47.635Z,67.27
2023-02-17T15:24:16.992Z,67.58
2023-02-17T15:26:43.562Z,69.49
2023-02-17T15:29:19.180Z,68.57
2023-02-17T15:31:47.199Z,69.80
2023-02-17T15:34:16.406Z,69.88
2023-02-17T15:36:43.249Z,70.66
2023-02-17T15:39:16.237Z,72.16
2023-02-17T15:41:44.891Z,72.59
2023-02-17T15:44:24.357Z,72.30
2023-02-17T15:46:53.391Z,73.22
2023-02-17T15:49:20.504Z,73.57
2023-02-17T15:51:46.986Z,72.93
2023-02-17T15:54:13.432Z,72.77
2023-02-17T15:56:44.068Z,73.06
2023-02-17T15:59:16.354Z,74.78
2023-02-17T16:01:43.073Z,74.93
2023-02-17T16:04:14.546Z,75.15
2023-02-17T16:06:41.212Z,77.30
2023-02-17T16:09:08.736Z,77.87
2023-02-17T16:11:38.559Z,77.79
2023-02-17T16:14:05.706Z,78.52
2023-02-17T16:16:33.484Z,78.53
2023-02-17T16:19:00.827Z,78.97
2023-02-17T16:21:27.672Z,80.05
2023-02-17T16:23:58.967Z,77.98
2023-02-17T16:26:34.775Z,80.35
2023-02-17T16:29:03.650Z,81.13
2023-02-17T16:31:32.359Z,80.84
2023-02-17T16:34:00.290Z,81.24
2023-02-17T16:36:32.087Z,80.18
2023-02-17T16:39:00.525Z,81.14
2023-02-17T16:41:28.563Z,78.74
2023-02-17T16:43:55.434Z,80.18
2023-02-17T16:46:31.166Z,80.51
2023-02-17T16:49:04.649Z,78.66
2023-02-17T16:51:31.093Z,77.98
2023-02-17T16:53:57.471Z,79.36
2023-02-17T16:56:37.442Z,77.99
2023-02-17T16:59:04.787Z,78.80
2023-02-17T17:01:32.173Z,77.60
2023-02-17T17:03:58.548Z,78.89
2023-02-17T17:06:28.894Z,77.78
2023-02-17T17:08:56.046Z,78.15
2023-02-17T17:11:25.328Z,78.34
2023-02-17T17:13:52.484Z,76.68
2023-02-17T17:16:21.714Z,76.44
2023-02-17T17:18:48.316Z,77.27
2023-02-17T17:21:17.233Z,77.38
2023-02-17T17:23:46.260Z,76.57
2023-02-17T17:26:20.258Z,75.89
2023-02-17T17:28:48.999Z,77.35
2023-02-17T17:31:16.154Z,77.65
2023-02-17T17:33:42.704Z,76.75
2023-02-17T17:36:14.622Z,77.90
2023-02-17T17:38:41.114Z,77.37
2023-02-17T17:41:11.880Z,77.04
2023-02-17T17:43:38.303Z,77.44
2023-02-17T17:46:22.805Z,79.03
2023-02-17T17:48:49.257Z,76.98
2023-02-17T17:51:18.815Z,76.97
2023-02-17T17:53:45.576Z,76.63
2023-02-17T17:56:22.465Z,78.01
2023-02-17T17:58:49.696Z,78.21
2023-02-17T18:01:17.186Z,77.65
2023-02-17T18:03:43.627Z,79.31
2023-02-17T18:06:15.996Z,78.70
2023-02-17T18:08:45.016Z,77.65
2023-02-17T18:11:14.506Z,78.65
2023-02-17T18:13:42.010Z,77.89
2023-02-17T18:16:08.888Z,77.60
2023-02-17T18:18:36.808Z,76.90
2023-02-17T18:21:03.242Z,76.27
2023-02-17T18:23:29.649Z,76.98
2023-02-17T18:25:56.068Z,76.72
2023-02-17T18:28:22.528Z,77.39
2023-02-17T18:30:49.275Z,77.71
2023-02-17T18:33:15.789Z,77.51
2023-02-17T18:35:44.056Z,77.90
2023-02-17T18:38:10.497Z,79.00
2023-02-17T18:40:41.157Z,77.91
2023-02-17T18:43:08.593Z,79.27
2023-02-17T18:45:35.634Z,80.57
2023-02-17T18:48:02.192Z,79.28
2023-02-17T18:50:32.884Z,78.75
2023-02-17T18:53:00.308Z,81.05
2023-02-17T18:55:26.935Z,80.12
2023-02-17T18:57:54.089Z,80.70
2023-02-17T19:00:24.586Z,81.37
2023-02-17T19:02:51.087Z,80.69
2023-02-17T19:05:17.561Z,80.61
2023-02-17T19:07:44.263Z,81.71
2023-02-17T19:10:11.471Z,81.35
2023-02-17T19:12:37.982Z,81.68
2023-02-17T19:15:05.479Z,81.42
2023-02-17T19:17:32.021Z,81.04
2023-02-17T19:19:58.553Z,81.83
2023-02-17T19:22:24.933Z,81.76
2023-02-17T19:24:53.985Z,81.39
2023-02-17T19:27:20.938Z,81.24
2023-02-17T19:29:47.359Z,82.57
2023-02-17T19:32:13.954Z,83.57
2023-02-17T19:34:40.452Z,82.56
2023-02-17T19:37:09.350Z,82.75
2023-02-17T19:39:36.054Z,80.94
2023-02-17T19:42:03.230Z,82.68
2023-02-17T19:44:31.221Z,83.24
2023-02-17T19:46:59.165Z,82.75
2023-02-17T19:49:33.013Z,82.89
2023-02-17T19:51:59.401Z,82.47
2023-02-17T19:54:25.852Z,81.80
2023-02-17T19:56:52.636Z,81.33
2023-02-17T19:59:19.203Z,80.38
2023-02-17T20:01:45.793Z,81.61
2023-02-17T20:04:14.687Z,80.82
2023-02-17T20:06:44.357Z,80.42
2023-02-17T20:09:15.628Z,81.29
2023-02-17T20:11:43.251Z,81.49
2023-02-17T20:14:11.092Z,80.83
2023-02-17T20:16:41.134Z,82.72
2023-02-17T20:19:07.905Z,83.58
2023-02-17T20:21:38.556Z,82.40
2023-02-17T20:24:05.573Z,81.14
2023-02-17T20:26:37.561Z,80.85
2023-02-17T20:29:04.384Z,81.50
2023-02-17T20:31:31.942Z,81.22
2023-02-17T20:34:02.879Z,82.81
2023-02-17T20:36:29.316Z,81.34
2023-02-17T20:38:55.692Z,81.40
2023-02-17T20:41:22.980Z,83.20
2023-02-17T20:43:50.986Z,83.42
2023-02-17T20:46:24.793Z,83.25
2023-02-17T20:48:51.868Z,82.59
2023-02-17T20:51:20.004Z,82.71
2023-02-17T20:53:54.846Z,83.22
2023-02-17T20:56:23.893Z,82.87
2023-02-17T20:58:51.877Z,83.12
2023-02-17T21:01:19.841Z,82.64
2023-02-17T21:03:47.039Z,83.23
2023-02-17T21:06:21.644Z,85.03
2023-02-17T21:08:53.517Z,84.27
2023-02-17T21:11:22.509Z,84.40
2023-02-17T21:13:49.281Z,83.80
2023-02-17T21:16:18.709Z,84.06
2023-02-17T21:18:46.908Z,85.05
2023-02-17T21:21:14.159Z,83.91
2023-02-17T21:23:40.690Z,83.56
2023-02-17T21:26:12.237Z,83.53
2023-02-17T21:28:39.305Z,83.32
2023-02-17T21:31:06.451Z,84.11
2023-02-17T21:33:33.744Z,83.59
2023-02-17T21:36:05.477Z,83.79
2023-02-17T21:38:32.058Z,83.49
2023-02-17T21:41:11.578Z,82.34
2023-02-17T21:43:57.759Z,83.15
2023-02-17T21:46:24.736Z,84.11
2023-02-17T21:48:53.728Z,84.81
2023-02-17T21:51:20.512Z,82.89
2023-02-17T21:53:48.186Z,82.65
2023-02-17T21:56:17.163Z,83.44
2023-02-17T21:58:47.657Z,83.45
2023-02-17T22:01:26.855Z,83.88
2023-02-17T22:03:54.055Z,85.09
2023-02-17T22:06:24.326Z,84.70
2023-02-17T22:08:51.348Z,84.82
2023-02-17T22:11:24.549Z,83.17
2023-02-17T22:13:55.280Z,82.92
2023-02-17T22:16:22.458Z,84.05
2023-02-17T22:18:49.614Z,85.24
2023-02-17T22:21:16.237Z,84.75
2023-02-17T22:23:45.653Z,84.45
2023-02-17T22:26:19.662Z,85.06
2023-02-17T22:28:46.494Z,85.33
2023-02-17T22:31:14.975Z,85.04
2023-02-17T22:33:42.093Z,85.78
2023-02-17T22:36:15.337Z,84.92
2023-02-17T22:38:44.161Z,85.37
2023-02-17T22:41:12.941Z,85.18
2023-02-17T22:46:38.004Z,85.25
2023-02-17T22:49:04.976Z,84.72
2023-02-17T22:51:37.645Z,84.60
2023-02-17T22:54:05.286Z,86.81
2023-02-17T22:56:32.581Z,87.02
2023-02-17T22:59:01.500Z,85.78
2023-02-17T23:01:30.641Z,85.76
2023-02-17T23:03:57.161Z,85.77
2023-02-17T23:06:29.744Z,84.58
2023-02-17T23:08:56.496Z,85.41
2023-02-17T23:11:44.975Z,85.20
2023-02-17T23:14:13.258Z,85.19
2023-02-17T23:16:40.494Z,84.18
2023-02-17T23:19:09.404Z,85.25
2023-02-17T23:21:36.506Z,85.14
2023-02-17T23:24:03.560Z,85.51
2023-02-17T23:26:30.153Z,85.59
2023-02-17T23:28:56.577Z,85.46
2023-02-17T23:31:23.047Z,86.30
2023-02-17T23:33:49.468Z,85.36
2023-02-17T23:36:16.302Z,86.28
2023-02-17T23:38:45.586Z,86.29
2023-02-17T23:41:12.013Z,85.46
2023-02-17T23:43:38.461Z,86.59
2023-02-17T23:46:05.257Z,86.33
2023-02-17T23:48:31.772Z,84.63
2023-02-17T23:51:04.352Z,86.94
2023-02-17T23:53:31.453Z,86.15
2023-02-17T23:56:33.924Z,85.21
2023-02-17T23:59:01.249Z,86.08
